createdAt,value
2022-12-18T00:01:20.191Z,102457.19
2022-12-18T00:06:40.827Z,102466.78
2022-12-18T00:17:36.462Z,102439.28
2022-12-18T00:22:57.455Z,102473.75
2022-12-18T00:28:18.244Z,102473.81
2022-12-18T00:33:39.519Z,102467.06
2022-12-18T00:39:05.605Z,102478.22
2022-12-18T00:44:26.040Z,102485.84
2022-12-18T00:49:46.391Z,102486.59
2022-12-18T00:55:07.831Z,102481.41
2022-12-18T01:00:28.373Z,102479.00
2022-12-18T01:05:49.079Z,102472.31
2022-12-18T01:11:12.785Z,102480.03
2022-12-18T01:16:33.237Z,102481.03
2022-12-18T01:21:53.582Z,102487.09
2022-12-18T01:27:14.419Z,102482.25
2022-12-18T01:32:35.363Z,102495.06
2022-12-18T01:37:56.860Z,102495.38
2022-12-18T01:43:17.174Z,102491.16
2022-12-18T01:48:39.678Z,102499.44
2022-12-18T01:54:00.844Z,102515.38
2022-12-18T01:59:21.398Z,102508.41
2022-12-18T02:04:46.324Z,102521.00
2022-12-18T02:10:26.437Z,102513.72
2022-12-18T02:15:57.350Z,102510.44
2022-12-18T02:21:40.087Z,102519.81
2022-12-18T02:27:04.379Z,102508.22
2022-12-18T02:32:37.463Z,102504.09
2022-12-18T02:37:58.984Z,102519.47
2022-12-18T02:43:21.847Z,102523.66
2022-12-18T02:48:43.871Z,102516.94
2022-12-18T02:54:22.540Z,102517.59
2022-12-18T02:59:59.035Z,102504.97
2022-12-18T03:05:34.166Z,102505.84
2022-12-18T03:11:07.711Z,102508.53
2022-12-18T03:16:32.016Z,102510.25
2022-12-18T03:21:56.724Z,102516.97
2022-12-18T03:27:22.142Z,102509.38
2022-12-18T03:33:09.217Z,102517.84
2022-12-18T03:47:26.486Z,102552.63
2022-12-18T03:52:58.265Z,102555.25
2022-12-18T03:58:24.339Z,102549.31
2022-12-18T04:04:11.389Z,102560.25
2022-12-18T04:09:36.154Z,102541.53
2022-12-18T04:14:58.037Z,102540.59
2022-12-18T04:20:19.291Z,102546.41
2022-12-18T04:25:41.186Z,102551.34
2022-12-18T04:31:05.752Z,102550.38
2022-12-18T04:36:26.341Z,102547.56
2022-12-18T04:41:47.581Z,102541.50
2022-12-18T04:47:08.631Z,102557.41
2022-12-18T04:52:29.028Z,102563.16
2022-12-18T04:57:50.156Z,102565.56
2022-12-18T05:03:10.651Z,102564.63
2022-12-18T05:08:31.822Z,102555.38
2022-12-18T05:13:52.680Z,102551.91
2022-12-18T05:19:13.266Z,102544.06
2022-12-18T05:24:34.156Z,102567.66
2022-12-18T05:29:54.761Z,102594.44
2022-12-18T05:35:17.488Z,102574.13
2022-12-18T05:40:38.454Z,102579.91
2022-12-18T05:46:04.983Z,102600.06
2022-12-18T05:51:25.426Z,102598.97
2022-12-18T05:56:48.814Z,102599.66
2022-12-18T06:02:09.503Z,102609.50
2022-12-18T06:07:30.159Z,102616.31
2022-12-18T06:12:50.987Z,102620.44
2022-12-18T06:18:11.631Z,102637.22
2022-12-18T06:23:31.898Z,102631.22
2022-12-18T06:28:52.510Z,102616.72
2022-12-18T06:34:13.039Z,102636.06
2022-12-18T06:39:33.439Z,102638.59
2022-12-18T06:44:54.637Z,102655.47
2022-12-18T06:50:15.781Z,102657.13
2022-12-18T06:55:36.408Z,102675.78
2022-12-18T07:01:04.736Z,102675.66
2022-12-18T07:06:27.164Z,102675.78
2022-12-18T07:11:47.688Z,102691.91
2022-12-18T07:17:08.362Z,102683.38
2022-12-18T07:22:29.288Z,102722.28
2022-12-18T07:27:50.749Z,102701.09
2022-12-18T07:33:11.391Z,102712.97
2022-12-18T07:38:32.979Z,102714.50
2022-12-18T07:43:53.169Z,102711.91
2022-12-18T07:49:13.985Z,102720.13
2022-12-18T07:54:34.847Z,102699.91
2022-12-18T07:59:58.890Z,102698.16
2022-12-18T08:05:27.053Z,102690.50
2022-12-18T08:10:47.686Z,102714.13
2022-12-18T08:16:08.568Z,102700.69
2022-12-18T08:21:31.234Z,102708.34
2022-12-18T08:27:20.732Z,102704.31
2022-12-18T08:32:33.901Z,102710.53
2022-12-18T08:37:55.328Z,102713.13
2022-12-18T08:43:34.268Z,102723.44
2022-12-18T08:48:57.025Z,102722.78
2022-12-18T08:54:24.136Z,102717.00
2022-12-18T08:59:50.408Z,102721.25
2022-12-18T09:05:12.407Z,102726.38
2022-12-18T09:10:33.092Z,102725.53
2022-12-18T09:15:55.425Z,102733.28
2022-12-18T09:21:18.391Z,102732.91
2022-12-18T09:26:38.619Z,102737.03
2022-12-18T09:32:00.330Z,102735.94
2022-12-18T09:37:21.216Z,102734.22
2022-12-18T09:42:50.025Z,102741.97
2022-12-18T09:48:23.009Z,102760.91
2022-12-18T09:53:51.105Z,102769.84
2022-12-18T09:59:35.091Z,102759.06
2022-12-18T10:04:55.631Z,102767.38
2022-12-18T10:10:32.761Z,102770.28
2022-12-18T10:16:28.610Z,102765.44
2022-12-18T10:22:16.774Z,102771.97
2022-12-18T10:27:37.242Z,102769.91
2022-12-18T10:33:02.394Z,102761.78
2022-12-18T10:38:29.256Z,102753.09
2022-12-18T10:44:20.019Z,102745.56
2022-12-18T10:49:49.185Z,102748.63
2022-12-18T10:55:17.721Z,102739.56
2022-12-18T11:00:38.495Z,102781.31
2022-12-18T11:06:07.043Z,102781.63
2022-12-18T11:11:27.967Z,102762.34
2022-12-18T11:17:23.769Z,102778.34
2022-12-18T11:22:34.999Z,102759.28
2022-12-18T11:27:58.927Z,102746.28
2022-12-18T11:33:23.102Z,102737.25
2022-12-18T11:38:45.227Z,102734.34
2022-12-18T11:44:11.228Z,102733.59
2022-12-18T11:49:36.166Z,102724.44
2022-12-18T11:55:02.300Z,102714.38
2022-12-18T12:00:24.043Z,102705.63
2022-12-18T12:06:02.648Z,102678.97
2022-12-18T12:11:28.862Z,102671.28
2022-12-18T12:16:59.876Z,102673.84
2022-12-18T12:22:40.980Z,102666.66
2022-12-18T12:28:25.383Z,102678.88
2022-12-18T12:34:02.179Z,102681.44
2022-12-18T12:39:31.169Z,102669.00
2022-12-18T12:44:58.330Z,102667.88
2022-12-18T12:50:21.104Z,102689.88
2022-12-18T12:55:43.635Z,102700.41
2022-12-18T13:01:23.089Z,102703.16
2022-12-18T13:06:54.108Z,102695.00
2022-12-18T13:12:35.927Z,102708.59
2022-12-18T13:18:28.304Z,102699.47
2022-12-18T13:23:49.415Z,102701.47
2022-12-18T13:29:10.114Z,102687.88
2022-12-18T13:34:32.238Z,102679.19
2022-12-18T13:39:53.598Z,102667.00
2022-12-18T13:45:42.751Z,102659.75
2022-12-18T13:51:07.235Z,102667.53
2022-12-18T13:56:33.356Z,102682.44
2022-12-18T14:01:59.975Z,102667.59
2022-12-18T14:07:30.843Z,102664.84
2022-12-18T14:13:00.871Z,102667.91
2022-12-18T14:18:48.712Z,102652.84
2022-12-18T14:24:09.327Z,102653.28
2022-12-18T14:29:31.610Z,102641.72
2022-12-18T14:34:56.748Z,102639.19
2022-12-18T14:40:17.454Z,102639.09
2022-12-18T14:45:45.261Z,102626.88
2022-12-18T14:51:07.286Z,102620.91
2022-12-18T14:56:49.485Z,102617.53
2022-12-18T15:02:21.339Z,102611.19
2022-12-18T15:07:44.312Z,102611.53
2022-12-18T15:13:04.917Z,102616.66
2022-12-18T15:18:32.806Z,102601.81
2022-12-18T15:23:57.381Z,102598.50
2022-12-18T15:29:23.017Z,102582.75
2022-12-18T15:34:43.651Z,102588.22
2022-12-18T15:40:05.095Z,102585.44
2022-12-18T15:45:25.628Z,102571.91
2022-12-18T15:50:47.644Z,102575.78
2022-12-18T15:56:34.605Z,102565.47
2022-12-18T16:01:56.536Z,102571.78
2022-12-18T16:07:24.885Z,102554.78
2022-12-18T16:12:46.952Z,102542.78
2022-12-18T16:18:08.222Z,102534.00
2022-12-18T16:23:29.580Z,102520.78
2022-12-18T16:28:50.159Z,102521.22
2022-12-18T16:34:29.048Z,102511.75
2022-12-18T16:39:49.669Z,102506.72
2022-12-18T16:45:12.966Z,102493.38
2022-12-18T16:50:33.501Z,102485.25
2022-12-18T16:55:57.435Z,102465.91
2022-12-18T17:01:17.916Z,102468.69
2022-12-18T17:06:44.034Z,102448.56
2022-12-18T17:12:04.823Z,102462.09
2022-12-18T17:17:25.193Z,102448.66
2022-12-18T17:22:45.786Z,102430.03
2022-12-18T17:28:06.568Z,102420.59
2022-12-18T17:33:26.950Z,102412.78
2022-12-18T17:38:56.487Z,102389.00
2022-12-18T17:44:17.743Z,102378.91
2022-12-18T17:49:39.084Z,102353.13
2022-12-18T17:54:59.436Z,102336.38
2022-12-18T18:00:20.364Z,102319.53
2022-12-18T18:05:40.980Z,102300.34
2022-12-18T18:11:31.250Z,102284.53
2022-12-18T18:16:52.575Z,102259.06
2022-12-18T18:22:12.957Z,102259.59
2022-12-18T18:27:38.348Z,102233.00
2022-12-18T18:32:59.113Z,102257.72
2022-12-18T18:38:19.624Z,102255.84
2022-12-18T18:43:40.581Z,102252.63
2022-12-18T18:49:01.770Z,102224.44
2022-12-18T18:54:22.419Z,102225.78
2022-12-18T18:59:43.286Z,102218.78
2022-12-18T19:05:04.008Z,102209.88
2022-12-18T19:10:24.782Z,102223.53
2022-12-18T19:15:45.905Z,102199.47
2022-12-18T19:21:06.608Z,102206.22
2022-12-18T19:26:28.753Z,102202.09
2022-12-18T19:31:49.533Z,102205.50
2022-12-18T19:37:10.050Z,102188.66
2022-12-18T19:42:35.272Z,102186.75
2022-12-18T19:48:01.104Z,102182.44
2022-12-18T19:53:24.883Z,102183.25
2022-12-18T19:58:45.891Z,102177.13
2022-12-18T20:04:06.833Z,102178.88
2022-12-18T20:09:28.185Z,102179.44
2022-12-18T20:14:49.346Z,102173.56
2022-12-18T20:20:10.338Z,102175.09
2022-12-18T20:25:30.704Z,102175.66
2022-12-18T20:30:51.782Z,102168.03
2022-12-18T20:36:19.145Z,102160.03
2022-12-18T20:41:44.299Z,102162.44
2022-12-18T20:54:37.443Z,102166.53
2022-12-18T20:59:57.841Z,102159.88
2022-12-18T21:05:18.623Z,102154.75
2022-12-18T21:10:39.174Z,102153.31
2022-12-18T21:16:00.120Z,102153.47
2022-12-18T21:21:24.774Z,102137.66
2022-12-18T21:26:48.496Z,102126.06
2022-12-18T21:32:09.686Z,102124.81
2022-12-18T21:37:30.029Z,102105.50
2022-12-18T21:43:09.182Z,102102.97
2022-12-18T21:48:31.075Z,102096.31
2022-12-18T21:53:51.556Z,102089.38
2022-12-18T21:59:21.838Z,102063.25
2022-12-18T22:04:44.095Z,102052.47
2022-12-18T22:10:05.015Z,102052.56
2022-12-18T22:15:25.734Z,102038.28
2022-12-18T22:20:48.063Z,102034.13
2022-12-18T22:26:10.693Z,102007.91
2022-12-18T22:31:31.202Z,102009.53
2022-12-18T22:36:51.716Z,101996.69
2022-12-18T22:42:12.013Z,101992.91
2022-12-18T22:47:32.874Z,102006.13
2022-12-18T22:52:53.396Z,101995.91
2022-12-18T22:58:14.175Z,102000.59
2022-12-18T23:03:35.242Z,101986.19
2022-12-18T23:08:57.655Z,101988.69
2022-12-18T23:14:18.178Z,101990.16
2022-12-18T23:19:41.670Z,101964.78
2022-12-18T23:25:05.175Z,101961.31
2022-12-18T23:30:25.558Z,101948.41
2022-12-18T23:35:45.872Z,101937.66
2022-12-18T23:41:11.031Z,101927.72
2022-12-18T23:46:33.909Z,101912.63
2022-12-18T23:51:55.133Z,101901.75
2022-12-18T23:57:15.598Z,101881.72
